Time;durP1;ratioP1;P1;durP2;ratioP2;P2;SDS_P1;SDS_P2;PMS_P1;PMS_P2;Temp;Humidity;BMP_temperature;BMP_pressure;BME280_temperature;BME280_humidity;BME280_pressure;Samples;Min_cycle;Max_cycle;Signal;HPM_P1;HPM_P2
2022/06/15 00:00:24;;;;;;;;;;;25.30;37.30;;;;;;1567071;74;728;-60
2022/06/15 00:02:26;;;;;;;;;;;25.30;37.20;;;;;;1562254;74;738;-62
2022/06/15 00:04:29;;;;;;;;;;;25.40;37.10;;;;;;1557784;74;1561;-61
2022/06/15 00:06:31;;;;;;;;;;;25.30;37.10;;;;;;1568300;74;1136;-61
2022/06/15 00:08:33;;;;;;;;;;;25.40;37.10;;;;;;1565752;74;755;-62
2022/06/15 00:10:35;;;;;;;;;;;25.40;37.10;;;;;;1563182;74;767;-61
2022/06/15 00:12:37;;;;;;;;;;;25.50;37.00;;;;;;1567936;74;1951;-61
2022/06/15 00:14:39;;;;;;;;;;;25.40;36.80;;;;;;1566186;74;682;-61
2022/06/15 00:16:41;;;;;;;;;;;25.40;36.80;;;;;;1561796;74;1131;-61
2022/06/15 00:18:44;;;;;;;;;;;25.40;36.80;;;;;;1573468;74;1609;-59
2022/06/15 00:20:46;;;;;;;;;;;25.40;36.80;;;;;;1563028;74;715;-62
2022/06/15 00:22:48;;;;;;;;;;;25.40;36.80;;;;;;1565579;74;707;-59
2022/06/15 00:24:50;;;;;;;;;;;25.40;36.80;;;;;;1561859;74;707;-59
2022/06/15 00:26:52;;;;;;;;;;;25.40;36.80;;;;;;1571869;74;1152;-61
2022/06/15 00:28:54;;;;;;;;;;;25.40;36.80;;;;;;1561251;74;699;-61
2022/06/15 00:30:56;;;;;;;;;;;25.40;36.80;;;;;;1581633;74;705;-61
2022/06/15 00:32:58;;;;;;;;;;;25.30;36.80;;;;;;1562915;74;1942;-60
2022/06/15 00:34:59;;;;;;;;;;;25.40;36.80;;;;;;1563073;74;620;-57
2022/06/15 00:37:01;;;;;;;;;;;25.40;36.80;;;;;;1558518;74;1121;-59
2022/06/15 00:39:03;;;;;;;;;;;25.30;36.80;;;;;;1560634;74;730;-60
2022/06/15 00:41:05;;;;;;;;;;;25.40;36.80;;;;;;1564199;74;703;-60
2022/06/15 00:43:09;;;;;;;;;;;25.30;36.90;;;;;;1565529;74;670;-59
2022/06/15 00:45:11;;;;;;;;;;;25.40;37.00;;;;;;1568681;74;740;-58
2022/06/15 00:47:17;;;;;;;;;;;25.30;37.10;;;;;;1566736;74;1579;-58
2022/06/15 00:49:23;;;;;;;;;;;25.40;36.90;;;;;;1568020;74;1920;-57
2022/06/15 00:51:25;;;;;;;;;;;25.30;36.90;;;;;;1567971;74;1930;-58
2022/06/15 00:53:27;;;;;;;;;;;25.30;36.90;;;;;;1585057;70;229302;-64
2022/06/15 00:55:30;;;;;;;;;;;25.30;36.90;;;;;;1591761;74;739;-65
2022/06/15 00:57:32;;;;;;;;;;;25.30;36.90;;;;;;1590278;74;1746;-65
2022/06/15 00:59:35;;;;;;;;;;;25.30;37.00;;;;;;1594645;74;677;-65
2022/06/15 01:01:37;;;;;;;;;;;25.30;37.00;;;;;;1586777;74;1586;-66
2022/06/15 01:03:39;;;;;;;;;;;25.20;37.10;;;;;;1590082;74;1174;-65
2022/06/15 01:05:42;;;;;;;;;;;25.30;37.10;;;;;;1591449;74;733;-63
2022/06/15 01:08:02;;;;;;;;;;;25.20;37.20;;;;;;1591006;74;810;-67
2022/06/15 01:10:06;;;;;;;;;;;25.30;37.20;;;;;;1593000;74;748;-67
2022/06/15 01:12:15;;;;;;;;;;;25.30;37.20;;;;;;1589012;74;1949;-65
2022/06/15 01:14:35;;;;;;;;;;;25.30;37.20;;;;;;1592095;74;1943;-68
2022/06/15 01:16:55;;;;;;;;;;;25.20;37.20;;;;;;1588588;74;673;-67
2022/06/15 01:19:02;;;;;;;;;;;25.20;37.20;;;;;;1587348;74;731;-65
2022/06/15 01:21:11;;;;;;;;;;;25.30;37.30;;;;;;1548925;74;1122;-66
2022/06/15 01:23:14;;;;;;;;;;;25.20;37.30;;;;;;1593883;74;1117;-65
2022/06/15 01:25:18;;;;;;;;;;;25.30;37.30;;;;;;1591645;74;688;-66
2022/06/15 01:27:38;;;;;;;;;;;25.30;37.30;;;;;;1591169;74;759;-67
2022/06/15 01:29:47;;;;;;;;;;;25.20;37.30;;;;;;1589969;74;1532;-68
2022/06/15 01:31:51;;;;;;;;;;;25.30;37.30;;;;;;1590083;73;1925;-67
2022/06/15 01:34:13;;;;;;;;;;;25.20;37.30;;;;;;1590659;74;622;-67
2022/06/15 01:36:20;;;;;;;;;;;25.20;37.30;;;;;;1586142;74;757;-67
2022/06/15 01:38:26;;;;;;;;;;;25.10;37.30;;;;;;1590121;74;708;-67
2022/06/15 01:40:35;;;;;;;;;;;25.20;37.40;;;;;;1592315;74;1802;-66
2022/06/15 01:42:39;;;;;;;;;;;25.10;37.40;;;;;;1589884;74;1883;-67
2022/06/15 01:44:45;;;;;;;;;;;25.20;37.40;;;;;;1596171;74;676;-63
2022/06/15 01:46:47;;;;;;;;;;;25.30;37.40;;;;;;1587288;74;1829;-67
2022/06/15 01:48:50;;;;;;;;;;;25.20;37.40;;;;;;1593401;74;699;-66
2022/06/15 01:50:53;;;;;;;;;;;25.20;37.60;;;;;;1592445;74;729;-67
2022/06/15 01:52:56;;;;;;;;;;;25.20;37.50;;;;;;1593263;74;1926;-66
2022/06/15 01:55:00;;;;;;;;;;;25.10;37.50;;;;;;1559213;74;1666;-66
2022/06/15 01:57:02;;;;;;;;;;;25.20;37.50;;;;;;1592560;74;1337;-66
2022/06/15 01:59:12;;;;;;;;;;;25.10;37.50;;;;;;1590660;74;722;-66
2022/06/15 02:01:17;;;;;;;;;;;25.10;37.50;;;;;;1591407;74;2076;-67
2022/06/15 02:03:21;;;;;;;;;;;25.20;37.60;;;;;;1585556;74;1153;-67
2022/06/15 02:05:24;;;;;;;;;;;25.10;37.60;;;;;;1592486;74;1619;-67
2022/06/15 02:07:30;;;;;;;;;;;25.20;37.60;;;;;;1590552;74;1878;-67
2022/06/15 02:09:40;;;;;;;;;;;25.00;37.60;;;;;;1590809;74;675;-68
2022/06/15 02:11:42;;;;;;;;;;;25.10;37.60;;;;;;1592940;74;1929;-66
2022/06/15 02:13:55;;;;;;;;;;;25.10;37.60;;;;;;1592074;74;773;-68
2022/06/15 02:15:58;;;;;;;;;;;25.10;37.60;;;;;;1590514;74;790;-69
2022/06/15 02:18:02;;;;;;;;;;;25.10;37.60;;;;;;1594812;74;788;-68
2022/06/15 02:20:05;;;;;;;;;;;25.10;37.60;;;;;;1592209;74;745;-68
2022/06/15 02:22:09;;;;;;;;;;;25.10;37.60;;;;;;1586767;74;1110;-69
2022/06/15 02:24:11;;;;;;;;;;;25.10;37.60;;;;;;1592561;74;664;-68
2022/06/15 02:26:14;;;;;;;;;;;25.20;37.60;;;;;;1591535;74;1576;-67
2022/06/15 02:28:16;;;;;;;;;;;25.10;37.60;;;;;;1596003;74;724;-69
2022/06/15 02:30:22;;;;;;;;;;;25.10;37.70;;;;;;1593305;74;705;-67
2022/06/15 02:32:24;;;;;;;;;;;25.10;37.60;;;;;;1593110;74;1926;-68
2022/06/15 02:34:26;;;;;;;;;;;25.20;37.70;;;;;;1591762;74;710;-69
2022/06/15 02:36:31;;;;;;;;;;;25.10;37.70;;;;;;1583105;74;675;-67
2022/06/15 02:38:31;;;;;;;;;;;25.10;37.60;;;;;;1590392;74;1685;-68
2022/06/15 02:40:33;;;;;;;;;;;25.20;37.60;;;;;;1592598;74;668;-69
2022/06/15 02:42:36;;;;;;;;;;;25.20;37.60;;;;;;1592479;74;1117;-68
2022/06/15 02:44:38;;;;;;;;;;;25.10;37.60;;;;;;1591211;74;706;-68
2022/06/15 02:46:41;;;;;;;;;;;25.10;37.70;;;;;;1583682;74;695;-69
2022/06/15 02:48:43;;;;;;;;;;;25.10;37.60;;;;;;1589578;74;664;-68
2022/06/15 02:50:47;;;;;;;;;;;25.10;37.60;;;;;;1582185;74;763;-69
2022/06/15 02:52:53;;;;;;;;;;;25.20;37.60;;;;;;1581331;74;1965;-69
2022/06/15 02:54:55;;;;;;;;;;;25.10;37.60;;;;;;1597600;73;2450;-68
2022/06/15 02:56:57;;;;;;;;;;;25.10;37.60;;;;;;1582162;74;757;-66
2022/06/15 02:58:59;;;;;;;;;;;25.10;37.60;;;;;;1582523;74;700;-66
2022/06/15 03:01:01;;;;;;;;;;;25.20;37.60;;;;;;1579091;74;749;-67
2022/06/15 03:03:03;;;;;;;;;;;25.10;37.60;;;;;;1581148;74;1145;-66
2022/06/15 03:05:05;;;;;;;;;;;25.10;37.60;;;;;;1587710;74;755;-67
2022/06/15 03:07:07;;;;;;;;;;;25.10;37.60;;;;;;1580981;74;1554;-67
2022/06/15 03:09:09;;;;;;;;;;;25.20;37.50;;;;;;1579104;74;725;-66
2022/06/15 03:11:11;;;;;;;;;;;25.10;37.50;;;;;;1576232;74;694;-67
2022/06/15 03:13:13;;;;;;;;;;;25.10;37.50;;;;;;1583153;74;1935;-66
2022/06/15 03:15:15;;;;;;;;;;;25.10;37.50;;;;;;1582298;74;623;-66
2022/06/15 03:17:16;;;;;;;;;;;25.10;37.50;;;;;;1576383;74;803;-65
2022/06/15 03:19:18;;;;;;;;;;;25.20;37.40;;;;;;1588411;74;662;-67
2022/06/15 03:21:20;;;;;;;;;;;25.20;37.40;;;;;;1575791;74;1561;-66
2022/06/15 03:23:23;;;;;;;;;;;25.10;37.50;;;;;;1581198;74;1134;-66
2022/06/15 03:25:25;;;;;;;;;;;25.20;37.40;;;;;;1585266;74;709;-66
2022/06/15 03:27:27;;;;;;;;;;;25.10;37.40;;;;;;1590892;74;683;-66
2022/06/15 03:29:30;;;;;;;;;;;25.10;37.60;;;;;;1596271;74;750;-67
2022/06/15 03:31:32;;;;;;;;;;;25.10;37.50;;;;;;1586781;74;726;-66
2022/06/15 03:33:34;;;;;;;;;;;25.20;37.50;;;;;;1588186;74;1929;-66
2022/06/15 03:35:36;;;;;;;;;;;25.10;37.50;;;;;;1581609;74;1511;-66
2022/06/15 03:37:38;;;;;;;;;;;25.20;37.50;;;;;;1594652;74;773;-66
2022/06/15 03:39:40;;;;;;;;;;;25.10;37.50;;;;;;1572838;74;714;-67
2022/06/15 03:41:42;;;;;;;;;;;25.10;37.50;;;;;;1577537;73;754;-62
2022/06/15 03:43:44;;;;;;;;;;;25.20;37.50;;;;;;1605704;73;582;-65
2022/06/15 03:45:46;;;;;;;;;;;25.10;37.50;;;;;;1582147;74;782;-66
2022/06/15 03:47:48;;;;;;;;;;;25.10;37.50;;;;;;1570143;74;789;-65
2022/06/15 03:49:50;;;;;;;;;;;25.20;37.50;;;;;;1582493;74;1566;-65
2022/06/15 03:51:52;;;;;;;;;;;25.10;37.50;;;;;;1577105;74;1123;-66
2022/06/15 03:53:54;;;;;;;;;;;25.10;37.50;;;;;;1588942;74;1918;-66
2022/06/15 03:55:56;;;;;;;;;;;25.10;37.50;;;;;;1587512;74;730;-66
2022/06/15 03:57:58;;;;;;;;;;;25.20;37.50;;;;;;1584516;74;732;-66
2022/06/15 04:00:00;;;;;;;;;;;25.10;37.50;;;;;;1576959;74;753;-66
2022/06/15 04:02:01;;;;;;;;;;;25.20;37.60;;;;;;1580148;74;1152;-66
2022/06/15 04:04:03;;;;;;;;;;;25.20;37.60;;;;;;1580230;74;1312;-67
2022/06/15 04:06:05;;;;;;;;;;;25.10;37.50;;;;;;1587291;74;753;-65
2022/06/15 04:10:29;;;;;;;;;;;25.10;37.60;;;;;;1575898;74;1578;-64
2022/06/15 04:12:31;;;;;;;;;;;25.20;37.60;;;;;;1589986;74;1930;-65
2022/06/15 04:14:33;;;;;;;;;;;25.10;37.50;;;;;;1581820;74;718;-66
2022/06/15 04:16:35;;;;;;;;;;;25.20;37.40;;;;;;1585399;74;624;-66
2022/06/15 04:18:38;;;;;;;;;;;25.20;37.50;;;;;;1588146;74;1583;-68
2022/06/15 04:20:41;;;;;;;;;;;25.10;37.60;;;;;;1592177;74;721;-70
2022/06/15 04:22:43;;;;;;;;;;;25.10;37.60;;;;;;1584427;74;1171;-69
2022/06/15 04:24:45;;;;;;;;;;;25.20;37.70;;;;;;1576469;74;666;-69
2022/06/15 04:26:48;;;;;;;;;;;25.10;37.70;;;;;;1581760;74;754;-70
2022/06/15 04:28:49;;;;;;;;;;;25.20;37.60;;;;;;1591181;74;775;-69
2022/06/15 04:30:51;;;;;;;;;;;25.20;37.60;;;;;;1588991;74;685;-68
2022/06/15 04:32:53;;;;;;;;;;;25.20;37.80;;;;;;1587385;74;1965;-68
2022/06/15 04:34:55;;;;;;;;;;;25.10;37.80;;;;;;1586401;74;729;-67
2022/06/15 04:36:57;;;;;;;;;;;25.20;37.70;;;;;;1579407;74;730;-68
2022/06/15 04:38:59;;;;;;;;;;;25.20;37.70;;;;;;1590673;74;668;-65
2022/06/15 04:41:03;;;;;;;;;;;25.20;37.70;;;;;;1584666;74;697;-65
2022/06/15 04:43:05;;;;;;;;;;;25.10;37.80;;;;;;1595488;73;2052;-66
2022/06/15 04:45:08;;;;;;;;;;;25.20;37.90;;;;;;1592094;74;1326;-67
2022/06/15 04:47:10;;;;;;;;;;;25.20;37.90;;;;;;1591386;74;754;-72
2022/06/15 04:49:12;;;;;;;;;;;25.20;37.80;;;;;;1589677;74;730;-70
2022/06/15 04:51:15;;;;;;;;;;;25.30;37.80;;;;;;1590876;74;716;-69
2022/06/15 04:53:17;;;;;;;;;;;25.20;37.60;;;;;;1592429;74;1926;-71
2022/06/15 04:55:20;;;;;;;;;;;25.20;37.60;;;;;;1592876;74;779;-69
2022/06/15 04:57:21;;;;;;;;;;;25.10;37.70;;;;;;1592035;74;827;-71
2022/06/15 04:59:23;;;;;;;;;;;25.10;37.80;;;;;;1594869;74;1572;-70
2022/06/15 05:01:25;;;;;;;;;;;25.10;37.80;;;;;;1589676;74;672;-73
2022/06/15 05:03:28;;;;;;;;;;;25.10;37.90;;;;;;1587187;74;1121;-71
2022/06/15 05:05:30;;;;;;;;;;;25.10;37.90;;;;;;1592366;74;736;-68
2022/06/15 05:07:32;;;;;;;;;;;25.00;38.00;;;;;;1594933;74;788;-68
2022/06/15 05:09:34;;;;;;;;;;;25.00;38.10;;;;;;1593270;74;694;-69
2022/06/15 05:11:35;;;;;;;;;;;25.00;38.10;;;;;;1593385;74;635;-68
2022/06/15 05:13:37;;;;;;;;;;;25.00;38.10;;;;;;1592757;74;1930;-68
2022/06/15 05:15:39;;;;;;;;;;;25.00;38.20;;;;;;1594856;74;681;-69
2022/06/15 05:17:41;;;;;;;;;;;25.00;38.20;;;;;;1589478;74;727;-69
2022/06/15 05:19:43;;;;;;;;;;;24.90;38.20;;;;;;1595136;74;701;-71
2022/06/15 05:21:45;;;;;;;;;;;25.00;38.30;;;;;;1592881;74;1148;-71
2022/06/15 05:23:47;;;;;;;;;;;25.00;38.30;;;;;;1590990;74;683;-71
2022/06/15 05:25:49;;;;;;;;;;;25.00;38.40;;;;;;1593210;74;725;-70
2022/06/15 05:27:51;;;;;;;;;;;24.90;38.40;;;;;;1590995;74;1534;-71
2022/06/15 05:29:53;;;;;;;;;;;25.00;38.40;;;;;;1590318;74;753;-70
2022/06/15 05:31:55;;;;;;;;;;;24.90;38.50;;;;;;1592126;74;1144;-69
2022/06/15 05:33:57;;;;;;;;;;;24.90;38.50;;;;;;1593381;74;1929;-67
2022/06/15 05:36:03;;;;;;;;;;;24.90;38.50;;;;;;1594167;74;743;-71
2022/06/15 05:38:05;;;;;;;;;;;25.00;38.50;;;;;;1594572;73;901;-69
2022/06/15 05:40:07;;;;;;;;;;;25.00;38.60;;;;;;1590774;74;771;-72
2022/06/15 05:42:09;;;;;;;;;;;24.90;38.60;;;;;;1590884;74;1420;-71
2022/06/15 05:44:30;;;;;;;;;;;24.90;38.60;;;;;;1588948;74;743;-71
2022/06/15 05:46:30;;;;;;;;;;;24.90;38.70;;;;;;1590652;74;1723;-72
2022/06/15 05:48:32;;;;;;;;;;;24.90;38.70;;;;;;1586623;74;657;-70
2022/06/15 05:50:34;;;;;;;;;;;24.90;38.70;;;;;;1591447;74;781;-71
2022/06/15 05:52:36;;;;;;;;;;;24.90;38.70;;;;;;1595753;74;1148;-71
2022/06/15 05:54:38;;;;;;;;;;;24.90;38.70;;;;;;1589654;74;1941;-71
2022/06/15 05:56:40;;;;;;;;;;;25.00;38.70;;;;;;1589843;74;1628;-72
2022/06/15 05:58:42;;;;;;;;;;;25.00;38.80;;;;;;1584416;74;675;-68
2022/06/15 06:00:44;;;;;;;;;;;25.00;38.80;;;;;;1593299;74;735;-70
2022/06/15 06:02:46;;;;;;;;;;;25.00;38.70;;;;;;1593497;74;1212;-70
2022/06/15 06:04:48;;;;;;;;;;;25.00;38.70;;;;;;1581032;74;727;-68
2022/06/15 06:06:50;;;;;;;;;;;25.00;38.70;;;;;;1591037;74;649;-67
2022/06/15 06:08:52;;;;;;;;;;;25.00;38.80;;;;;;1586551;74;669;-66
2022/06/15 06:10:54;;;;;;;;;;;25.00;38.80;;;;;;1589993;74;1490;-68
2022/06/15 06:12:55;;;;;;;;;;;25.00;38.80;;;;;;1585349;74;1135;-69
2022/06/15 06:14:57;;;;;;;;;;;25.00;38.80;;;;;;1586913;74;1942;-69
2022/06/15 06:16:59;;;;;;;;;;;25.00;38.90;;;;;;1591023;74;743;-68
2022/06/15 06:19:01;;;;;;;;;;;25.00;38.80;;;;;;1576487;74;724;-67
2022/06/15 06:21:05;;;;;;;;;;;25.00;38.90;;;;;;1593550;74;740;-69
2022/06/15 06:23:07;;;;;;;;;;;25.00;38.90;;;;;;1590605;74;1143;-69
2022/06/15 06:25:10;;;;;;;;;;;25.10;38.90;;;;;;1593295;74;1671;-68
2022/06/15 06:27:12;;;;;;;;;;;25.10;38.90;;;;;;1576679;74;639;-69
2022/06/15 06:29:15;;;;;;;;;;;25.10;38.80;;;;;;1586278;74;766;-72
2022/06/15 06:31:19;;;;;;;;;;;25.10;38.80;;;;;;1587086;74;751;-72
2022/06/15 06:33:20;;;;;;;;;;;25.10;38.80;;;;;;1589020;74;1933;-70
2022/06/15 06:35:22;;;;;;;;;;;25.10;38.80;;;;;;1592236;74;653;-70
2022/06/15 06:37:24;;;;;;;;;;;25.10;38.80;;;;;;1591983;73;692;-70
2022/06/15 06:39:27;;;;;;;;;;;25.20;38.80;;;;;;1591895;74;695;-69
2022/06/15 06:41:29;;;;;;;;;;;25.10;38.80;;;;;;1595360;74;722;-71
2022/06/15 06:43:31;;;;;;;;;;;25.10;38.80;;;;;;1595575;74;1131;-70
2022/06/15 06:45:33;;;;;;;;;;;25.20;38.80;;;;;;1595756;74;935;-70
2022/06/15 06:47:34;;;;;;;;;;;25.10;38.80;;;;;;1595417;74;637;-70
2022/06/15 06:49:36;;;;;;;;;;;25.20;38.80;;;;;;1592263;74;697;-71
2022/06/15 06:51:38;;;;;;;;;;;25.20;38.70;;;;;;1594637;74;1573;-71
2022/06/15 06:53:42;;;;;;;;;;;25.20;38.70;;;;;;1588008;73;224686;-61
2022/06/15 06:55:44;;;;;;;;;;;25.30;38.70;;;;;;1582716;72;1169;-59
2022/06/15 06:57:46;;;;;;;;;;;25.30;38.60;;;;;;1562251;74;830;-60
2022/06/15 06:59:47;;;;;;;;;;;25.40;38.60;;;;;;1556384;74;703;-60
2022/06/15 07:01:49;;;;;;;;;;;25.40;38.50;;;;;;1557556;74;679;-58
2022/06/15 07:03:51;;;;;;;;;;;25.50;38.50;;;;;;1544813;74;736;-57
2022/06/15 07:05:55;;;;;;;;;;;25.40;38.40;;;;;;1546123;74;1520;-56
2022/06/15 07:07:56;;;;;;;;;;;25.50;38.40;;;;;;1569884;74;1614;-59
2022/06/15 07:09:58;;;;;;;;;;;25.50;38.30;;;;;;1556977;74;705;-60
2022/06/15 07:12:00;;;;;;;;;;;25.50;38.30;;;;;;1572037;74;751;-59
2022/06/15 07:14:03;;;;;;;;;;;25.40;38.40;;;;;;1576562;74;1907;-59
2022/06/15 07:16:05;;;;;;;;;;;25.50;38.40;;;;;;1579734;74;1197;-58
2022/06/15 07:18:07;;;;;;;;;;;25.50;38.40;;;;;;1580035;74;768;-60
2022/06/15 07:20:10;;;;;;;;;;;25.50;38.40;;;;;;1560678;74;1594;-58
2022/06/15 07:22:12;;;;;;;;;;;25.50;38.40;;;;;;1569671;74;754;-61
2022/06/15 07:24:14;;;;;;;;;;;25.50;38.40;;;;;;1572271;74;735;-60
2022/06/15 07:26:16;;;;;;;;;;;25.50;38.40;;;;;;1569463;74;1140;-57
2022/06/15 07:28:18;;;;;;;;;;;25.50;38.40;;;;;;1572170;74;688;-60
2022/06/15 07:30:20;;;;;;;;;;;25.50;38.40;;;;;;1572745;74;709;-58
2022/06/15 07:32:22;;;;;;;;;;;25.60;38.30;;;;;;1569745;74;705;-60
2022/06/15 07:34:24;;;;;;;;;;;25.50;38.40;;;;;;1573920;74;1938;-59
2022/06/15 07:36:26;;;;;;;;;;;25.60;38.40;;;;;;1575349;74;1085;-60
2022/06/15 07:38:28;;;;;;;;;;;25.70;38.40;;;;;;1560162;74;765;-58
2022/06/15 07:40:30;;;;;;;;;;;25.60;38.60;;;;;;1557097;74;744;-55
2022/06/15 07:42:32;;;;;;;;;;;25.60;39.10;;;;;;1558979;74;695;-55
2022/06/15 07:44:34;;;;;;;;;;;25.50;39.80;;;;;;1567055;74;671;-59
2022/06/15 07:46:36;;;;;;;;;;;25.70;39.60;;;;;;1563826;74;1138;-57
2022/06/15 07:50:58;;;;;;;;;;;25.70;39.50;;;;;;1554587;74;1658;-56
2022/06/15 07:53:00;;;;;;;;;;;25.70;40.40;;;;;;1553236;74;693;-58
2022/06/15 07:55:03;;;;;;;;;;;25.70;40.00;;;;;;1557484;74;1931;-57
2022/06/15 07:57:05;;;;;;;;;;;25.70;39.80;;;;;;1566024;74;1158;-57
2022/06/15 07:59:07;;;;;;;;;;;25.60;39.80;;;;;;1573034;74;803;-58
2022/06/15 08:01:09;;;;;;;;;;;25.70;40.20;;;;;;1558261;74;679;-60
2022/06/15 08:03:10;;;;;;;;;;;25.80;40.20;;;;;;1560847;74;1531;-57
2022/06/15 08:05:12;;;;;;;;;;;25.70;40.20;;;;;;1545700;74;708;-60
2022/06/15 08:07:14;;;;;;;;;;;25.70;39.80;;;;;;1547948;74;1133;-58
2022/06/15 08:09:16;;;;;;;;;;;25.80;39.80;;;;;;1568076;74;762;-58
2022/06/15 08:11:18;;;;;;;;;;;26.00;39.90;;;;;;1553450;74;627;-57
2022/06/15 08:13:20;;;;;;;;;;;25.90;39.20;;;;;;1566139;74;725;-57
2022/06/15 08:15:22;;;;;;;;;;;26.10;39.50;;;;;;1569237;74;1946;-58
2022/06/15 08:17:24;;;;;;;;;;;26.20;39.30;;;;;;1563041;74;1586;-61
2022/06/15 08:19:26;;;;;;;;;;;26.10;39.20;;;;;;1571678;74;692;-60
2022/06/15 08:21:29;;;;;;;;;;;26.00;39.30;;;;;;1555145;74;732;-58
2022/06/15 08:23:33;;;;;;;;;;;26.10;39.60;;;;;;1564996;74;735;-58
2022/06/15 08:25:36;;;;;;;;;;;26.00;39.60;;;;;;1563075;74;684;-57
2022/06/15 08:27:38;;;;;;;;;;;26.10;39.50;;;;;;1565159;74;665;-57
2022/06/15 08:29:40;;;;;;;;;;;26.10;39.50;;;;;;1565548;74;887;-60
2022/06/15 08:31:42;;;;;;;;;;;26.20;39.50;;;;;;1561804;74;1578;-60
2022/06/15 08:33:44;;;;;;;;;;;26.20;39.40;;;;;;1561617;74;782;-58
2022/06/15 08:35:47;;;;;;;;;;;26.20;39.30;;;;;;1545718;74;1939;-56
2022/06/15 08:37:49;;;;;;;;;;;26.30;39.20;;;;;;1564466;74;818;-60
2022/06/15 08:39:51;;;;;;;;;;;26.30;39.00;;;;;;1567425;74;734;-60
2022/06/15 08:42:03;;;;;;;;;;;26.40;38.90;;;;;;1564877;74;705;-57
2022/06/15 08:44:07;;;;;;;;;;;26.30;38.70;;;;;;1564054;74;1951;-60
2022/06/15 08:46:13;;;;;;;;;;;26.30;38.80;;;;;;1551920;74;2093;-55
2022/06/15 08:48:20;;;;;;;;;;;26.40;38.80;;;;;;1553505;74;670;-59
2022/06/15 08:50:35;;;;;;;;;;;26.50;38.60;;;;;;1568551;74;761;-61
2022/06/15 08:52:50;;;;;;;;;;;26.40;38.60;;;;;;1567983;74;623;-59
2022/06/15 08:54:56;;;;;;;;;;;26.30;38.70;;;;;;1568679;74;2030;-60
2022/06/15 08:57:02;;;;;;;;;;;26.30;38.90;;;;;;1562803;74;1150;-57
2022/06/15 08:59:08;;;;;;;;;;;26.40;38.80;;;;;;1560813;74;1530;-57
2022/06/15 09:01:15;;;;;;;;;;;26.40;38.80;;;;;;1570247;74;723;-58
2022/06/15 09:03:35;;;;;;;;;;;26.50;38.60;;;;;;1530582;74;1049;-57
2022/06/15 09:05:47;;;;;;;;;;;26.40;38.60;;;;;;1567198;74;1180;-57
2022/06/15 09:07:51;;;;;;;;;;;26.50;38.90;;;;;;1553095;74;1797;-58
2022/06/15 09:09:58;;;;;;;;;;;26.40;39.20;;;;;;1577925;74;588;-59
2022/06/15 09:12:49;;;;;;;;;;;26.30;39.20;;;;;;1566387;74;1955;-58
2022/06/15 09:14:24;;;;;;;;;;;26.30;39.30;;;;;;1549058;74;1921;-57
2022/06/15 09:16:40;;;;;;;;;;;26.30;39.20;;;;;;1567853;74;1893;-59
2022/06/15 09:18:43;;;;;;;;;;;26.40;39.10;;;;;;1566281;74;1932;-59
2022/06/15 09:20:47;;;;;;;;;;;26.40;38.80;;;;;;1579560;74;789;-55
2022/06/15 09:22:50;;;;;;;;;;;26.50;38.80;;;;;;1561619;74;700;-59
2022/06/15 09:24:53;;;;;;;;;;;26.50;38.70;;;;;;1555049;74;694;-57
2022/06/15 09:26:56;;;;;;;;;;;26.50;38.90;;;;;;1566256;74;1625;-60
2022/06/15 09:29:00;;;;;;;;;;;26.50;38.80;;;;;;1544891;74;764;-58
2022/06/15 09:31:03;;;;;;;;;;;26.50;38.70;;;;;;1567360;74;756;-58
2022/06/15 09:33:32;;;;;;;;;;;26.50;38.70;;;;;;1546506;74;1060;-60
2022/06/15 09:35:32;;;;;;;;;;;26.50;39.30;;;;;;1557206;74;1913;-56
2022/06/15 09:37:35;;;;;;;;;;;26.50;38.90;;;;;;1567804;74;1134;-57
2022/06/15 09:39:37;;;;;;;;;;;26.40;39.00;;;;;;1562691;74;667;-56
2022/06/15 09:41:50;;;;;;;;;;;26.60;38.90;;;;;;1560441;74;1550;-57
2022/06/15 09:44:08;;;;;;;;;;;26.50;38.90;;;;;;1560699;74;928;-59
2022/06/15 09:46:24;;;;;;;;;;;26.40;40.00;;;;;;1559381;74;1783;-57
2022/06/15 09:48:28;;;;;;;;;;;26.50;39.40;;;;;;1515102;74;1035;-56
2022/06/15 09:50:47;;;;;;;;;;;26.40;39.50;;;;;;1560376;74;735;-55
2022/06/15 09:52:59;;;;;;;;;;;26.40;40.40;;;;;;1498746;78;1040;-56
2022/06/15 09:55:06;;;;;;;;;;;26.40;39.80;;;;;;1539073;74;1932;-59
2022/06/15 09:57:06;;;;;;;;;;;26.50;39.50;;;;;;1557541;74;1726;-59
2022/06/15 09:59:09;;;;;;;;;;;26.50;39.40;;;;;;1562576;74;682;-56
2022/06/15 10:01:12;;;;;;;;;;;26.50;39.60;;;;;;1558596;74;731;-59
2022/06/15 10:03:24;;;;;;;;;;;26.50;39.80;;;;;;1570112;74;654;-59
2022/06/15 10:05:27;;;;;;;;;;;26.50;40.60;;;;;;1574817;74;784;-59
2022/06/15 10:07:31;;;;;;;;;;;26.50;41.50;;;;;;1576299;74;1899;-57
2022/06/15 10:09:34;;;;;;;;;;;26.40;41.30;;;;;;1578760;74;1555;-58
2022/06/15 10:11:38;;;;;;;;;;;26.40;41.60;;;;;;1563026;73;1873;-60
2022/06/15 10:13:41;;;;;;;;;;;26.40;40.60;;;;;;1552424;74;1854;-56
2022/06/15 10:15:44;;;;;;;;;;;26.50;40.30;;;;;;1560635;74;1902;-59
2022/06/15 10:17:48;;;;;;;;;;;26.40;40.30;;;;;;1561119;74;675;-59
2022/06/15 10:19:50;;;;;;;;;;;26.50;40.00;;;;;;1550524;74;757;-55
2022/06/15 10:21:54;;;;;;;;;;;26.50;40.00;;;;;;1564537;74;722;-58
2022/06/15 10:24:10;;;;;;;;;;;26.50;39.90;;;;;;1555645;74;1557;-59
2022/06/15 10:26:13;;;;;;;;;;;26.50;39.80;;;;;;1570360;74;1896;-58
2022/06/15 10:28:17;;;;;;;;;;;26.50;39.70;;;;;;1576690;74;951;-59
2022/06/15 10:30:20;;;;;;;;;;;26.40;39.70;;;;;;1566972;74;710;-58
2022/06/15 10:32:22;;;;;;;;;;;26.40;39.70;;;;;;1566115;74;1804;-60
2022/06/15 10:34:27;;;;;;;;;;;26.40;39.60;;;;;;1563562;73;691;-58
2022/06/15 10:36:33;;;;;;;;;;;26.40;39.60;;;;;;1554080;74;1935;-58
2022/06/15 10:38:36;;;;;;;;;;;26.50;39.70;;;;;;1551000;74;626;-58
2022/06/15 10:40:39;;;;;;;;;;;26.50;39.70;;;;;;1554082;74;1710;-58
2022/06/15 10:42:41;;;;;;;;;;;26.50;39.50;;;;;;1545731;74;734;-56
2022/06/15 10:44:44;;;;;;;;;;;26.50;39.40;;;;;;1557469;74;699;-59
2022/06/15 10:46:48;;;;;;;;;;;26.50;39.40;;;;;;1549277;74;1151;-56
2022/06/15 10:48:51;;;;;;;;;;;26.40;39.50;;;;;;1563715;74;1696;-60
2022/06/15 10:51:07;;;;;;;;;;;26.40;39.60;;;;;;1558257;74;1562;-59
2022/06/15 10:53:07;;;;;;;;;;;26.40;39.70;;;;;;1551307;74;1202;-55
2022/06/15 11:02:25;;;;;;;;;;;26.40;39.70;;;;;;1566180;74;1630;-57
2022/06/15 11:04:28;;;;;;;;;;;26.40;40.70;;;;;;1569465;74;694;-56
2022/06/15 11:06:32;;;;;;;;;;;26.40;40.20;;;;;;1574846;74;1672;-59
2022/06/15 11:08:34;;;;;;;;;;;26.40;40.60;;;;;;1573019;74;1841;-59
2022/06/15 11:10:37;;;;;;;;;;;26.40;40.30;;;;;;1552636;74;729;-59
2022/06/15 11:12:40;;;;;;;;;;;26.40;40.30;;;;;;1567767;74;700;-59
2022/06/15 11:14:47;;;;;;;;;;;26.40;40.10;;;;;;1559449;75;1982;-55
2022/06/15 11:19:09;;;;;;;;;;;26.40;40.30;;;;;;1574414;74;1637;-57
2022/06/15 11:21:21;;;;;;;;;;;26.40;40.50;;;;;;1575692;74;748;-59
2022/06/15 11:23:28;;;;;;;;;;;26.50;40.50;;;;;;1567715;74;681;-57
2022/06/15 11:25:32;;;;;;;;;;;26.40;40.50;;;;;;1567325;74;676;-60
2022/06/15 11:27:34;;;;;;;;;;;26.40;41.30;;;;;;1568166;74;1040;-59
2022/06/15 11:29:48;;;;;;;;;;;26.40;40.90;;;;;;1576181;74;792;-59
2022/06/15 11:31:50;;;;;;;;;;;26.30;40.80;;;;;;1560515;74;716;-59
2022/06/15 11:33:53;;;;;;;;;;;26.30;41.20;;;;;;1558040;74;1565;-57
2022/06/15 11:36:13;;;;;;;;;;;26.30;41.50;;;;;;1552553;74;1939;-58
2022/06/15 11:38:17;;;;;;;;;;;26.30;41.50;;;;;;1556759;74;728;-56
2022/06/15 11:40:23;;;;;;;;;;;26.30;41.80;;;;;;1562109;74;1196;-57
2022/06/15 11:42:25;;;;;;;;;;;26.30;41.50;;;;;;1557453;74;1905;-58
2022/06/15 11:44:31;;;;;;;;;;;26.40;41.20;;;;;;1576869;74;695;-57
2022/06/15 11:46:34;;;;;;;;;;;26.40;41.30;;;;;;1547394;73;1148;-54
2022/06/15 11:48:54;;;;;;;;;;;26.40;41.70;;;;;;1563167;74;1600;-59
2022/06/15 11:50:57;;;;;;;;;;;26.30;41.80;;;;;;1551322;74;658;-58
2022/06/15 11:53:04;;;;;;;;;;;26.30;41.80;;;;;;1560519;74;694;-57
2022/06/15 11:55:08;;;;;;;;;;;26.40;42.40;;;;;;1559106;74;2030;-59
2022/06/15 11:57:28;;;;;;;;;;;26.30;42.20;;;;;;1566403;74;1874;-57
2022/06/15 11:59:32;;;;;;;;;;;26.30;42.30;;;;;;1569122;74;779;-57
2022/06/15 12:01:41;;;;;;;;;;;26.40;42.30;;;;;;1565149;74;1975;-57
2022/06/15 12:03:51;;;;;;;;;;;26.30;42.00;;;;;;1556114;74;721;-59
2022/06/15 12:05:55;;;;;;;;;;;26.40;41.80;;;;;;1563945;74;1509;-59
2022/06/15 12:08:10;;;;;;;;;;;26.50;41.60;;;;;;1553178;74;2108;-58
2022/06/15 12:10:31;;;;;;;;;;;26.40;41.70;;;;;;1563894;74;1760;-56
2022/06/15 12:12:43;;;;;;;;;;;26.30;42.10;;;;;;1570304;74;790;-56
2022/06/15 12:15:05;;;;;;;;;;;26.30;42.00;;;;;;1562849;74;776;-55
2022/06/15 12:17:13;;;;;;;;;;;26.40;41.90;;;;;;1564733;74;1147;-56
2022/06/15 12:19:20;;;;;;;;;;;26.30;42.10;;;;;;1571519;74;890;-57
2022/06/15 12:21:30;;;;;;;;;;;26.30;41.80;;;;;;1569604;74;743;-57
2022/06/15 12:23:42;;;;;;;;;;;26.30;42.40;;;;;;1567594;73;730;-56
2022/06/15 12:25:45;;;;;;;;;;;26.40;41.90;;;;;;1568256;74;1157;-57
2022/06/15 12:27:52;;;;;;;;;;;26.30;41.70;;;;;;1574528;74;1882;-58
2022/06/15 12:30:04;;;;;;;;;;;26.40;41.70;;;;;;1565002;74;1574;-57
2022/06/15 12:32:38;;;;;;;;;;;26.40;41.60;;;;;;1561637;74;1829;-56